Time;durP1;ratioP1;P1;durP2;ratioP2;P2;SDS_P1;SDS_P2;PMS_P1;PMS_P2;Temp;Humidity;BMP_temperature;BMP_pressure;BME280_temperature;BME280_humidity;BME280_pressure;Samples;Min_cycle;Max_cycle;Signal;HPM_P1;HPM_P2
2022/11/23 00:00:14;;;;;;;21.88;17.38;;;;;;;;;;4976427;28;20022;-77
2022/11/23 00:02:40;;;;;;;20.85;16.20;;;;;;;;;;4976360;28;20023;-77
2022/11/23 00:05:07;;;;;;;16.70;13.07;;;;;;;;;;4976214;28;20034;-77
2022/11/23 00:07:33;;;;;;;13.02;11.20;;;;;;;;;;4976162;28;20423;-77
2022/11/23 00:09:59;;;;;;;15.43;13.18;;;;;;;;;;4976175;28;20027;-77
2022/11/23 00:12:25;;;;;;;15.23;11.88;;;;;;;;;;4975997;28;20030;-77
2022/11/23 00:14:51;;;;;;;15.38;11.52;;;;;;;;;;4976095;28;20030;-77
2022/11/23 00:17:17;;;;;;;17.23;13.02;;;;;;;;;;4975915;28;20037;-77
2022/11/23 00:19:43;;;;;;;15.55;12.38;;;;;;;;;;4975834;28;20019;-77
2022/11/23 00:22:09;;;;;;;15.32;11.27;;;;;;;;;;4975887;28;20483;-77
2022/11/23 00:24:36;;;;;;;14.77;11.27;;;;;;;;;;4975849;28;20126;-77
2022/11/23 00:27:02;;;;;;;12.18;9.35;;;;;;;;;;4975898;28;20030;-77
2022/11/23 00:29:28;;;;;;;13.00;10.32;;;;;;;;;;4975837;28;20110;-77
2022/11/23 00:31:54;;;;;;;11.80;9.85;;;;;;;;;;4974943;28;20026;-77
2022/11/23 00:34:20;;;;;;;10.40;8.05;;;;;;;;;;4975673;28;20110;-77
2022/11/23 00:36:46;;;;;;;12.38;7.72;;;;;;;;;;4975733;28;20143;-77
2022/11/23 00:39:12;;;;;;;8.68;6.53;;;;;;;;;;4975529;28;20060;-77
2022/11/23 00:41:38;;;;;;;10.10;7.28;;;;;;;;;;4975550;28;20450;-77
2022/11/23 00:44:04;;;;;;;9.45;6.97;;;;;;;;;;4975553;28;20027;-77
2022/11/23 00:46:30;;;;;;;18.33;14.82;;;;;;;;;;4975489;28;20491;-77
2022/11/23 00:48:57;;;;;;;13.40;9.93;;;;;;;;;;4975486;28;20038;-77
2022/11/23 00:51:25;;;;;;;10.50;9.25;;;;;;;;;;4975408;28;20053;-77
2022/11/23 00:53:51;;;;;;;11.50;8.25;;;;;;;;;;4975280;28;20031;-77
2022/11/23 00:56:18;;;;;;;11.48;8.70;;;;;;;;;;4975223;28;20478;-77
2022/11/23 00:58:48;;;;;;;12.43;8.43;;;;;;;;;;4975375;28;20031;-77
2022/11/23 01:01:16;;;;;;;10.85;6.93;;;;;;;;;;4975261;28;20070;-77
2022/11/23 01:03:44;;;;;;;18.63;15.55;;;;;;;;;;4975372;28;20085;-77
2022/11/23 01:06:12;;;;;;;23.02;16.63;;;;;;;;;;4975178;28;20023;-77
2022/11/23 01:08:38;;;;;;;23.17;17.88;;;;;;;;;;4975078;28;20387;-77
2022/11/23 01:11:11;;;;;;;21.60;17.45;;;;;;;;;;4975041;28;20466;-77
2022/11/23 01:13:38;;;;;;;22.40;17.70;;;;;;;;;;4974916;28;20031;-77
2022/11/23 01:16:04;;;;;;;24.38;19.45;;;;;;;;;;4975135;28;20042;-77
2022/11/23 01:18:30;;;;;;;15.77;12.43;;;;;;;;;;4974953;28;20069;-77
2022/11/23 01:20:57;;;;;;;15.65;13.18;;;;;;;;;;4974883;28;20030;-77
2022/11/23 01:23:24;;;;;;;18.98;14.85;;;;;;;;;;4974777;28;20055;-77
2022/11/23 01:25:50;;;;;;;16.02;12.05;;;;;;;;;;4974743;28;20051;-77
2022/11/23 01:28:16;;;;;;;14.73;12.65;;;;;;;;;;4974815;28;20066;-77
2022/11/23 01:30:42;;;;;;;11.95;10.48;;;;;;;;;;4974612;28;20039;-77
2022/11/23 01:33:08;;;;;;;8.90;7.53;;;;;;;;;;4974766;28;20110;-77
2022/11/23 01:35:34;;;;;;;9.70;7.03;;;;;;;;;;4974602;28;20049;-77
2022/11/23 01:38:00;;;;;;;7.93;4.22;;;;;;;;;;4974757;28;20101;-77
2022/11/23 01:40:26;;;;;;;6.32;4.07;;;;;;;;;;4974561;28;20059;-77
2022/11/23 01:42:58;;;;;;;5.43;3.67;;;;;;;;;;4974503;28;20438;-77
2022/11/23 01:45:27;;;;;;;6.65;5.07;;;;;;;;;;4974629;28;20029;-77
2022/11/23 01:47:53;;;;;;;5.07;3.75;;;;;;;;;;4974611;28;20479;-77
2022/11/23 01:50:19;;;;;;;8.60;6.38;;;;;;;;;;4974544;28;20069;-77
2022/11/23 01:52:45;;;;;;;9.05;7.13;;;;;;;;;;4974547;28;20036;-77
2022/11/23 01:55:11;;;;;;;6.75;5.07;;;;;;;;;;4974249;28;20494;-77
2022/11/23 01:57:40;;;;;;;4.72;4.18;;;;;;;;;;4974560;28;20025;-77
2022/11/23 02:00:07;;;;;;;7.72;5.72;;;;;;;;;;4974549;28;20098;-77
2022/11/23 02:02:34;;;;;;;6.38;4.97;;;;;;;;;;4974491;28;20381;-77
2022/11/23 02:05:01;;;;;;;5.10;4.45;;;;;;;;;;4974426;28;20062;-77
2022/11/23 02:07:28;;;;;;;6.38;4.75;;;;;;;;;;4974445;28;20035;-77
2022/11/23 02:09:54;;;;;;;5.45;4.30;;;;;;;;;;4974438;28;20026;-77
2022/11/23 02:12:20;;;;;;;7.03;4.38;;;;;;;;;;4974304;28;20026;-77
2022/11/23 02:14:46;;;;;;;6.72;4.97;;;;;;;;;;4974371;28;20140;-77
2022/11/23 02:17:12;;;;;;;7.63;5.05;;;;;;;;;;4974389;28;20452;-77
2022/11/23 02:19:41;;;;;;;7.07;6.07;;;;;;;;;;4974207;28;20026;-77
2022/11/23 02:22:12;;;;;;;7.80;5.28;;;;;;;;;;4974235;28;20027;-77
2022/11/23 02:24:41;;;;;;;7.45;6.75;;;;;;;;;;4974162;28;20047;-77
2022/11/23 02:27:08;;;;;;;6.32;4.78;;;;;;;;;;4974240;28;20031;-77
2022/11/23 02:29:34;;;;;;;10.43;6.78;;;;;;;;;;4974336;28;20038;-77
2022/11/23 02:32:00;;;;;;;9.25;5.60;;;;;;;;;;4974186;28;20053;-77
2022/11/23 02:34:26;;;;;;;7.22;5.55;;;;;;;;;;4974067;28;20034;-77
2022/11/23 02:36:54;;;;;;;8.00;6.10;;;;;;;;;;4974160;28;20023;-77
2022/11/23 02:39:22;;;;;;;6.45;4.68;;;;;;;;;;4974027;28;20034;-77
2022/11/23 02:41:50;;;;;;;6.47;4.70;;;;;;;;;;4974212;28;20059;-77
2022/11/23 02:44:19;;;;;;;5.35;3.47;;;;;;;;;;4974063;28;20027;-77
2022/11/23 02:46:45;;;;;;;5.50;4.40;;;;;;;;;;4974202;28;20030;-77
2022/11/23 02:49:11;;;;;;;5.10;4.30;;;;;;;;;;4973960;28;20023;-77
2022/11/23 02:51:37;;;;;;;6.07;4.03;;;;;;;;;;4974019;28;20023;-77
2022/11/23 02:54:03;;;;;;;5.25;3.60;;;;;;;;;;4975099;28;20477;-77
2022/11/23 02:56:29;;;;;;;6.07;3.40;;;;;;;;;;4977537;28;20033;-77
2022/11/23 02:58:55;;;;;;;4.80;3.30;;;;;;;;;;4977428;28;20422;-77
2022/11/23 03:01:21;;;;;;;3.65;3.20;;;;;;;;;;4977587;28;20053;-77
2022/11/23 03:03:47;;;;;;;7.60;5.10;;;;;;;;;;4977527;28;20031;-77
2022/11/23 03:06:13;;;;;;;5.95;4.10;;;;;;;;;;4977364;28;20113;-77
2022/11/23 03:08:40;;;;;;;5.03;4.43;;;;;;;;;;4977353;28;20359;-77
2022/11/23 03:11:06;;;;;;;5.38;4.18;;;;;;;;;;4977261;28;20060;-77
2022/11/23 03:13:32;;;;;;;7.70;4.75;;;;;;;;;;4977037;28;20026;-77
2022/11/23 03:15:58;;;;;;;6.80;5.13;;;;;;;;;;4977190;28;20493;-77
2022/11/23 03:18:25;;;;;;;8.63;5.25;;;;;;;;;;4977182;28;20027;-77
2022/11/23 03:20:51;;;;;;;7.65;5.63;;;;;;;;;;4977148;28;20023;-77
2022/11/23 03:23:17;;;;;;;5.53;4.32;;;;;;;;;;4977043;28;20097;-77
2022/11/23 03:25:43;;;;;;;6.85;5.47;;;;;;;;;;4976858;28;20046;-77
2022/11/23 03:28:09;;;;;;;6.57;5.00;;;;;;;;;;4976811;28;20030;-77
2022/11/23 03:30:35;;;;;;;7.43;5.00;;;;;;;;;;4976958;28;20074;-77
2022/11/23 03:33:01;;;;;;;6.07;4.70;;;;;;;;;;4976869;28;20059;-77
2022/11/23 03:35:27;;;;;;;6.75;5.40;;;;;;;;;;4976791;28;20027;-77
2022/11/23 03:37:53;;;;;;;6.00;4.82;;;;;;;;;;4976753;28;20023;-77
2022/11/23 03:40:19;;;;;;;6.97;5.55;;;;;;;;;;4976816;28;20031;-77
2022/11/23 03:42:45;;;;;;;8.40;5.65;;;;;;;;;;4976704;28;20078;-77
2022/11/23 03:45:11;;;;;;;10.82;9.32;;;;;;;;;;4976570;28;20031;-77
2022/11/23 03:47:37;;;;;;;13.60;8.57;;;;;;;;;;4976513;28;20030;-77
2022/11/23 03:50:04;;;;;;;10.82;7.68;;;;;;;;;;4976460;28;20379;-77
2022/11/23 03:52:30;;;;;;;10.05;6.80;;;;;;;;;;4976607;28;20471;-77
2022/11/23 03:54:56;;;;;;;10.55;7.60;;;;;;;;;;4976403;28;20035;-77
2022/11/23 03:57:22;;;;;;;11.32;7.00;;;;;;;;;;4976435;28;20023;-77
2022/11/23 03:59:48;;;;;;;9.63;6.68;;;;;;;;;;4976753;28;20026;-77
2022/11/23 04:02:14;;;;;;;8.65;5.90;;;;;;;;;;4976277;28;20030;-77
2022/11/23 04:04:40;;;;;;;7.07;5.30;;;;;;;;;;4976207;28;20030;-77
2022/11/23 04:07:06;;;;;;;6.90;4.80;;;;;;;;;;4976191;28;20023;-77
2022/11/23 04:09:32;;;;;;;7.88;4.93;;;;;;;;;;4976192;28;20034;-77
2022/11/23 04:11:58;;;;;;;6.13;4.75;;;;;;;;;;4976099;28;20382;-77
2022/11/23 04:14:24;;;;;;;5.45;4.32;;;;;;;;;;4975944;28;20026;-77
2022/11/23 04:16:50;;;;;;;6.78;4.80;;;;;;;;;;4976119;28;20027;-77
2022/11/23 04:19:16;;;;;;;6.82;4.72;;;;;;;;;;4976078;28;20521;-77
2022/11/23 04:21:42;;;;;;;12.40;7.50;;;;;;;;;;4975909;28;20050;-77
2022/11/23 04:24:08;;;;;;;6.50;4.85;;;;;;;;;;4975650;28;20045;-77
2022/11/23 04:26:35;;;;;;;9.15;6.03;;;;;;;;;;4975635;28;20389;-77
2022/11/23 04:29:01;;;;;;;6.82;5.07;;;;;;;;;;4975784;28;20023;-77
2022/11/23 04:31:27;;;;;;;5.72;3.75;;;;;;;;;;4975862;28;20062;-77
2022/11/23 04:33:55;;;;;;;5.53;4.18;;;;;;;;;;4975669;28;20098;-77
2022/11/23 04:36:21;;;;;;;5.22;3.95;;;;;;;;;;4975544;28;20029;-77
2022/11/23 04:38:47;;;;;;;4.05;3.38;;;;;;;;;;4975695;28;20074;-77
2022/11/23 04:41:13;;;;;;;6.53;3.97;;;;;;;;;;4975612;28;20035;-77
2022/11/23 04:43:39;;;;;;;7.55;4.20;;;;;;;;;;4975675;28;20030;-77
2022/11/23 04:46:05;;;;;;;4.47;3.15;;;;;;;;;;4975220;28;20092;-77
2022/11/23 04:48:31;;;;;;;9.05;7.05;;;;;;;;;;4975244;28;20534;-80
2022/11/23 04:50:57;;;;;;;12.98;9.55;;;;;;;;;;4975154;28;20034;-80
2022/11/23 04:53:23;;;;;;;6.95;4.63;;;;;;;;;;4974683;28;20022;-80
2022/11/23 04:55:49;;;;;;;7.60;5.32;;;;;;;;;;4975233;28;20035;-80
2022/11/23 04:58:16;;;;;;;7.03;4.10;;;;;;;;;;4975405;28;20105;-80
2022/11/23 05:00:42;;;;;;;5.55;3.28;;;;;;;;;;4974924;28;20033;-80
2022/11/23 05:03:08;;;;;;;5.75;3.25;;;;;;;;;;4975119;28;20019;-80
2022/11/23 05:05:36;;;;;;;4.43;2.63;;;;;;;;;;4974960;28;20471;-80
2022/11/23 05:08:02;;;;;;;5.43;3.50;;;;;;;;;;4974876;28;20031;-80
2022/11/23 05:10:28;;;;;;;6.18;3.38;;;;;;;;;;4974868;28;20037;-80
2022/11/23 05:12:54;;;;;;;5.18;2.88;;;;;;;;;;4974788;28;20033;-80
2022/11/23 05:15:20;;;;;;;14.25;9.45;;;;;;;;;;4974266;28;20070;-79
2022/11/23 05:17:46;;;;;;;57.92;37.10;;;;;;;;;;4974311;28;20023;-79
2022/11/23 05:20:16;;;;;;;88.68;47.85;;;;;;;;;;4974453;28;20493;-80
2022/11/23 05:22:42;;;;;;;92.93;50.92;;;;;;;;;;4976908;28;20183;-80
2022/11/23 05:25:12;;;;;;;26.70;16.45;;;;;;;;;;4976005;28;20062;-79
2022/11/23 05:31:41;;;;;;;;;;;;;;;;;;;;;
2022/11/23 05:41:46;;;;;;;;;;;;;;;;;;;;;
2022/11/23 05:50:44;;;;;;;7.57;6.30;;;;;;;;;;4927784;29;20043;-78
2022/11/23 05:53:59;;;;;;;;;;;;;;;;;;;;;
2022/11/23 05:56:56;;;;;;;;;;;;;;;;;;;;;
2022/11/23 06:00:01;;;;;;;;;;;;;;;;;;;;;
2022/11/23 06:37:15;;;;;;;13.38;11.98;;;;;;;;;;4827509;29;20038;-79
2022/11/23 06:39:41;;;;;;;11.73;7.55;;;;;;;;;;4845555;29;20049;-79
2022/11/23 06:42:07;;;;;;;8.30;6.35;;;;;;;;;;4958824;28;20492;-83
2022/11/23 06:44:33;;;;;;;8.20;6.50;;;;;;;;;;4989913;28;20477;-81
2022/11/23 06:46:59;;;;;;;15.00;8.07;;;;;;;;;;4982941;28;20121;-81
2022/11/23 06:49:27;;;;;;;8.25;5.20;;;;;;;;;;4987686;28;20027;-81
2022/11/23 06:51:53;;;;;;;5.93;4.88;;;;;;;;;;4989115;28;20386;-79
2022/11/23 06:54:19;;;;;;;9.77;5.53;;;;;;;;;;4982873;28;20035;-81
2022/11/23 06:56:46;;;;;;;6.32;5.05;;;;;;;;;;4988724;28;20026;-81
2022/11/23 06:59:12;;;;;;;9.93;6.53;;;;;;;;;;4991365;28;20745;-81
2022/11/23 07:01:38;;;;;;;7.50;4.75;;;;;;;;;;4994675;28;20030;-80
2022/11/23 07:04:04;;;;;;;9.95;8.20;;;;;;;;;;4976632;28;20033;-83
2022/11/23 07:06:30;;;;;;;11.38;9.25;;;;;;;;;;5002297;28;20034;-80
2022/11/23 07:08:56;;;;;;;8.32;5.25;;;;;;;;;;4993998;28;20038;-81
2022/11/23 07:11:22;;;;;;;6.80;4.93;;;;;;;;;;4992666;28;20035;-81
2022/11/23 07:14:09;;;;;;;8.45;5.20;;;;;;;;;;4992619;28;20026;-77
2022/11/23 07:16:35;;;;;;;5.68;3.35;;;;;;;;;;4993057;28;20097;-83
2022/11/23 07:19:01;;;;;;;6.05;2.85;;;;;;;;;;4991550;28;20037;-83
2022/11/23 07:21:27;;;;;;;19.73;14.35;;;;;;;;;;4993629;28;20105;-85
2022/11/23 07:23:53;;;;;;;65.75;45.97;;;;;;;;;;4993993;28;20025;-82
2022/11/23 07:26:22;;;;;;;72.80;52.25;;;;;;;;;;4985234;28;20488;-82
2022/11/23 07:28:48;;;;;;;63.95;46.85;;;;;;;;;;4985109;28;20124;-85
2022/11/23 07:31:15;;;;;;;59.47;44.58;;;;;;;;;;4991489;28;20026;-81
2022/11/23 07:33:44;;;;;;;34.03;21.48;;;;;;;;;;4988296;28;20026;-84
2022/11/23 07:36:10;;;;;;;26.05;18.08;;;;;;;;;;4984901;28;20101;-82
2022/11/23 07:38:36;;;;;;;21.80;14.40;;;;;;;;;;4970747;28;20502;-81
2022/11/23 07:41:03;;;;;;;55.10;21.67;;;;;;;;;;4985711;28;20073;-80
2022/11/23 07:43:29;;;;;;;58.42;20.75;;;;;;;;;;4983449;28;20045;-86
2022/11/23 07:45:58;;;;;;;47.28;20.42;;;;;;;;;;4988407;28;20023;-82
2022/11/23 07:48:25;;;;;;;29.00;10.50;;;;;;;;;;4993708;28;20026;-84
2022/11/23 07:50:54;;;;;;;7.90;4.03;;;;;;;;;;4993716;28;20077;-83
2022/11/23 07:53:23;;;;;;;6.82;3.53;;;;;;;;;;4993738;28;20072;-82
2022/11/23 07:55:49;;;;;;;16.40;6.22;;;;;;;;;;4991679;28;20034;-82
2022/11/23 07:58:15;;;;;;;14.68;5.28;;;;;;;;;;4981045;28;20397;-83
2022/11/23 08:00:41;;;;;;;11.60;8.98;;;;;;;;;;4986872;28;20062;-80
2022/11/23 08:03:10;;;;;;;7.75;2.97;;;;;;;;;;4989721;28;20390;-80
2022/11/23 08:05:36;;;;;;;6.53;2.90;;;;;;;;;;4992848;28;20088;-77
2022/11/23 08:08:02;;;;;;;6.03;3.00;;;;;;;;;;4993473;28;20046;-81
2022/11/23 08:10:29;;;;;;;4.28;2.70;;;;;;;;;;4993092;28;20033;-80
2022/11/23 08:13:14;;;;;;;8.70;3.72;;;;;;;;;;4985535;28;20398;-82
2022/11/23 08:15:40;;;;;;;7.70;2.75;;;;;;;;;;4981175;28;20030;-79
2022/11/23 08:18:06;;;;;;;13.02;3.97;;;;;;;;;;4984665;28;20060;-78
2022/11/23 08:20:32;;;;;;;12.73;5.15;;;;;;;;;;4985080;28;20130;-80
2022/11/23 08:22:58;;;;;;;5.72;1.92;;;;;;;;;;4990875;28;20030;-81
2022/11/23 08:25:25;;;;;;;5.10;2.45;;;;;;;;;;4984639;28;20042;-81
2022/11/23 08:27:58;;;;;;;33.53;10.15;;;;;;;;;;4980140;28;20507;-82
2022/11/23 08:30:25;;;;;;;13.55;4.40;;;;;;;;;;4974078;28;20026;-79
2022/11/23 08:32:51;;;;;;;53.05;13.05;;;;;;;;;;4988668;28;20030;-83
2022/11/23 08:35:17;;;;;;;46.72;11.18;;;;;;;;;;4980069;28;20090;-79
2022/11/23 08:37:43;;;;;;;78.90;20.42;;;;;;;;;;4975948;28;20500;-78
2022/11/23 08:40:09;;;;;;;79.55;21.85;;;;;;;;;;4996346;28;20054;-81
2022/11/23 08:42:35;;;;;;;12.98;4.63;;;;;;;;;;4983673;28;20019;-78
2022/11/23 08:45:04;;;;;;;24.45;7.20;;;;;;;;;;4981987;28;20037;-82
2022/11/23 08:47:31;;;;;;;3.17;1.48;;;;;;;;;;4978327;28;20033;-82
2022/11/23 08:49:57;;;;;;;12.50;4.15;;;;;;;;;;4975050;28;20034;-77
2022/11/23 08:52:23;;;;;;;11.93;2.38;;;;;;;;;;4991634;28;20058;-78
2022/11/23 08:54:49;;;;;;;7.13;1.75;;;;;;;;;;4986164;28;20034;-82
2022/11/23 08:57:15;;;;;;;3.65;1.83;;;;;;;;;;4993177;28;20035;-81
2022/11/23 08:59:41;;;;;;;9.18;3.50;;;;;;;;;;4987642;28;20030;-80
2022/11/23 09:02:09;;;;;;;4.15;1.40;;;;;;;;;;4994965;28;20492;-80
2022/11/23 09:04:35;;;;;;;8.23;2.60;;;;;;;;;;4991991;28;20112;-82
2022/11/23 09:07:02;;;;;;;8.38;2.75;;;;;;;;;;4992470;28;20393;-80
2022/11/23 09:09:28;;;;;;;8.10;2.92;;;;;;;;;;4975005;28;20026;-80
2022/11/23 09:11:55;;;;;;;9.68;3.53;;;;;;;;;;4991822;28;20036;-79
2022/11/23 09:23:40;;;;;;;3.60;0.88;;;;;;;;;;4991797;28;20081;-78
2022/11/23 09:26:18;;;;;;;2.97;1.02;;;;;;;;;;5004633;28;20045;-78
2022/11/23 09:32:04;;;;;;;4.50;2.00;;;;;;;;;;4931804;29;20079;-78
2022/11/23 09:34:45;;;;;;;7.70;2.63;;;;;;;;;;5005391;28;20052;-78
2022/11/23 09:37:33;;;;;;;;;;;;;;;;;;;;;
2022/11/23 09:43:35;;;;;;;3.47;1.20;;;;;;;;;;4896555;29;20196;-79
2022/11/23 09:46:20;;;;;;;4.07;1.40;;;;;;;;;;4990068;28;20038;-79
2022/11/23 09:48:46;;;;;;;2.65;1.55;;;;;;;;;;4990469;28;20088;-78
2022/11/23 09:51:12;;;;;;;2.40;1.30;;;;;;;;;;4974077;28;20038;-78
2022/11/23 09:53:41;;;;;;;3.13;2.00;;;;;;;;;;4977655;28;20029;-78
2022/11/23 09:56:15;;;;;;;3.08;2.55;;;;;;;;;;5009893;28;20484;-78
2022/11/23 09:58:41;;;;;;;11.93;3.85;;;;;;;;;;4973969;28;20524;-79
2022/11/23 10:01:11;;;;;;;3.50;1.98;;;;;;;;;;4986320;28;20122;-78
2022/11/23 10:03:38;;;;;;;9.40;4.70;;;;;;;;;;4988769;28;20026;-78
2022/11/23 10:06:07;;;;;;;4.70;2.28;;;;;;;;;;4977565;28;20177;-81
2022/11/23 10:08:43;;;;;;;4.53;1.60;;;;;;;;;;4982269;28;20049;-77
2022/11/23 10:11:18;;;;;;;2.67;0.70;;;;;;;;;;5009325;28;20038;-80
2022/11/23 10:14:02;;;;;;;3.03;0.77;;;;;;;;;;4994914;28;20049;-81
2022/11/23 10:16:35;;;;;;;1.75;0.50;;;;;;;;;;4983979;28;20533;-81
2022/11/23 10:19:01;;;;;;;2.50;0.73;;;;;;;;;;4984194;28;20077;-80
2022/11/23 10:21:47;;;;;;;3.83;2.40;;;;;;;;;;4986533;28;20018;-81
2022/11/23 10:24:18;;;;;;;3.42;1.70;;;;;;;;;;5008614;28;20382;-79
2022/11/23 10:26:46;;;;;;;5.28;2.78;;;;;;;;;;4994959;28;20026;-78
2022/11/23 10:29:20;;;;;;;5.35;3.10;;;;;;;;;;4988841;28;20030;-82
2022/11/23 10:31:48;;;;;;;1.35;0.30;;;;;;;;;;4995033;28;20073;-79
2022/11/23 10:34:15;;;;;;;2.38;0.80;;;;;;;;;;4987240;28;20030;-82
2022/11/23 10:36:42;;;;;;;1.63;0.60;;;;;;;;;;4986032;28;20521;-79
2022/11/23 10:39:27;;;;;;;1.92;0.55;;;;;;;;;;4989347;28;20022;-79
2022/11/23 10:42:09;;;;;;;2.00;0.70;;;;;;;;;;4985787;28;20449;-79
2022/11/23 10:44:37;;;;;;;7.85;2.42;;;;;;;;;;4986375;28;20035;-83
2022/11/23 10:47:04;;;;;;;3.65;1.35;;;;;;;;;;4989456;28;20122;-84
2022/11/23 10:49:31;;;;;;;3.88;1.60;;;;;;;;;;4986428;28;20030;-79
2022/11/23 10:52:17;;;;;;;2.08;0.70;;;;;;;;;;4983508;28;20097;-82
2022/11/23 10:54:45;;;;;;;7.63;2.53;;;;;;;;;;4984225;28;20163;-82
2022/11/23 10:57:27;;;;;;;4.00;1.50;;;;;;;;;;4986956;28;20026;-81
2022/11/23 10:59:58;;;;;;;2.63;0.85;;;;;;;;;;4988080;28;20160;-81
2022/11/23 11:02:24;;;;;;;5.60;2.38;;;;;;;;;;4985914;28;20094;-81
2022/11/23 11:04:50;;;;;;;1.58;0.60;;;;;;;;;;4987886;28;20062;-79
2022/11/23 11:07:19;;;;;;;2.15;1.23;;;;;;;;;;4985746;28;21016;-80
2022/11/23 11:09:50;;;;;;;2.03;0.80;;;;;;;;;;4981294;28;20042;-80
2022/11/23 11:12:17;;;;;;;5.95;1.20;;;;;;;;;;4983916;28;20030;-84
2022/11/23 11:14:56;;;;;;;4.63;1.52;;;;;;;;;;4993465;28;20026;-81
2022/11/23 11:17:26;;;;;;;2.53;0.60;;;;;;;;;;4996765;28;20565;-79
2022/11/23 11:19:53;;;;;;;2.00;0.80;;;;;;;;;;4985742;28;20058;-80
2022/11/23 11:22:27;;;;;;;3.17;1.70;;;;;;;;;;4974373;28;20101;-81
2022/11/23 11:24:54;;;;;;;2.65;1.50;;;;;;;;;;4974521;28;20074;-81
2022/11/23 11:27:20;;;;;;;3.40;1.83;;;;;;;;;;4985260;28;20097;-80
2022/11/23 11:29:48;;;;;;;316.65;110.00;;;;;;;;;;4989297;28;20474;-81
2022/11/23 11:32:14;;;;;;;333.35;114.07;;;;;;;;;;4974886;28;20548;-83
2022/11/23 11:34:52;;;;;;;165.52;59.38;;;;;;;;;;4974408;28;20169;-79
2022/11/23 11:37:37;;;;;;;142.10;50.35;;;;;;;;;;4976613;28;20081;-81
2022/11/23 11:40:03;;;;;;;;;;;;;;;;;;4981587;28;20037;-81
2022/11/23 11:42:41;;;;;;;136.13;47.30;;;;;;;;;;4981474;28;19913;-81
2022/11/23 11:45:12;;;;;;;63.00;22.35;;;;;;;;;;4993892;28;20026;-81
2022/11/23 11:47:41;;;;;;;43.10;16.10;;;;;;;;;;4994708;28;20084;-81
2022/11/23 11:50:19;;;;;;;8.75;2.80;;;;;;;;;;4987360;28;20402;-79
2022/11/23 11:52:47;;;;;;;5.68;1.70;;;;;;;;;;4986348;28;20431;-81
2022/11/23 11:55:22;;;;;;;5.07;2.70;;;;;;;;;;4992350;28;20026;-80
2022/11/23 11:57:54;;;;;;;6.43;2.30;;;;;;;;;;4992569;28;20019;-79
2022/11/23 12:00:20;;;;;;;3.65;1.27;;;;;;;;;;4980689;28;20430;-78
2022/11/23 12:03:05;;;;;;;5.65;3.00;;;;;;;;;;4987778;28;20030;-82
2022/11/23 12:05:37;;;;;;;4.20;1.73;;;;;;;;;;4984216;28;20113;-83
2022/11/23 12:08:06;;;;;;;1.33;0.60;;;;;;;;;;4980209;28;20023;-76
2022/11/23 12:10:36;;;;;;;3.53;0.98;;;;;;;;;;4984745;28;20078;-81
2022/11/23 12:13:02;;;;;;;3.45;1.27;;;;;;;;;;4987419;28;20500;-81
2022/11/23 12:15:39;;;;;;;4.05;2.63;;;;;;;;;;4981907;28;20105;-83
2022/11/23 12:18:11;;;;;;;1.40;0.85;;;;;;;;;;4984880;28;20644;-79
2022/11/23 12:20:56;;;;;;;4.63;2.17;;;;;;;;;;4980296;28;20105;-80
2022/11/23 12:23:27;;;;;;;343.95;116.43;;;;;;;;;;4982767;28;20605;-82
2022/11/23 12:25:59;;;;;;;140.38;48.47;;;;;;;;;;4983715;28;20509;-81
2022/11/23 12:28:29;;;;;;;13.15;4.90;;;;;;;;;;4986487;28;20026;-79
2022/11/23 12:31:01;;;;;;;8.23;2.00;;;;;;;;;;4985020;28;20093;-77
2022/11/23 12:33:27;;;;;;;5.10;2.08;;;;;;;;;;4993046;28;20019;-79
2022/11/23 12:36:12;;;;;;;6.53;2.38;;;;;;;;;;4989243;28;20061;-81
2022/11/23 12:38:56;;;;;;;8.18;3.58;;;;;;;;;;4993461;28;20029;-80
2022/11/23 12:41:23;;;;;;;8.00;3.55;;;;;;;;;;4983870;28;20389;-79
2022/11/23 12:43:57;;;;;;;3.80;1.42;;;;;;;;;;4981722;28;20034;-80
2022/11/23 12:46:23;;;;;;;7.80;3.97;;;;;;;;;;4989426;28;20029;-78
2022/11/23 12:49:03;;;;;;;4.18;2.20;;;;;;;;;;4976526;28;20105;-80
2022/11/23 12:51:45;;;;;;;14.23;7.13;;;;;;;;;;4992743;28;20030;-82
2022/11/23 12:54:29;;;;;;;3.05;1.52;;;;;;;;;;4988618;28;20057;-81
2022/11/23 12:57:14;;;;;;;3.97;1.30;;;;;;;;;;4974964;28;20227;-80
2022/11/23 12:59:40;;;;;;;;;;;;;;;;;;4989600;28;20037;-79
2022/11/23 13:02:11;;;;;;;3.72;1.73;;;;;;;;;;4992119;28;19913;-79
2022/11/23 13:04:50;;;;;;;4.65;1.10;;;;;;;;;;4975144;28;20034;-79
2022/11/23 13:07:25;;;;;;;4.72;1.80;;;;;;;;;;4985474;28;20026;-79
2022/11/23 13:10:10;;;;;;;10.95;2.20;;;;;;;;;;4989840;28;20081;-83
2022/11/23 13:12:36;;;;;;;;;;;;;;;;;;4979355;28;20406;-81
2022/11/23 13:15:14;;;;;;;8.65;2.92;;;;;;;;;;4979450;28;21222;-81
2022/11/23 13:17:58;;;;;;;15.70;3.95;;;;;;;;;;4976063;28;20023;-82
2022/11/23 13:20:34;;;;;;;6.40;2.75;;;;;;;;;;4969933;28;20029;-76
2022/11/23 13:23:00;;;;;;;7.00;2.80;;;;;;;;;;4987846;28;20042;-84
2022/11/23 13:25:27;;;;;;;8.00;3.10;;;;;;;;;;4992103;28;20410;-79
2022/11/23 13:27:54;;;;;;;8.13;3.38;;;;;;;;;;4981915;28;20477;-83
2022/11/23 13:30:20;;;;;;;6.60;1.63;;;;;;;;;;4977889;28;20026;-81
2022/11/23 13:32:53;;;;;;;5.97;1.92;;;;;;;;;;4985145;28;20055;-82
2022/11/23 13:35:19;;;;;;;6.80;3.05;;;;;;;;;;4992292;28;20026;-82
2022/11/23 13:37:54;;;;;;;6.15;2.08;;;;;;;;;;4990073;28;20468;-79
2022/11/23 13:40:21;;;;;;;4.50;1.48;;;;;;;;;;4977454;28;20382;-82
2022/11/23 13:42:51;;;;;;;9.23;4.13;;;;;;;;;;4986151;28;20051;-82
2022/11/23 13:45:20;;;;;;;10.88;5.07;;;;;;;;;;4985537;28;20030;-84
2022/11/23 13:48:05;;;;;;;8.00;3.63;;;;;;;;;;4975059;28;20178;-83
2022/11/23 13:50:31;;;;;;;6.45;2.53;;;;;;;;;;4987019;28;20035;-80
2022/11/23 13:52:58;;;;;;;31.38;22.67;;;;;;;;;;4988149;28;20334;-82
2022/11/23 13:55:42;;;;;;;36.30;26.95;;;;;;;;;;4988444;28;20034;-81
2022/11/23 13:58:27;;;;;;;12.07;7.38;;;;;;;;;;4985415;28;20027;-81
2022/11/23 14:00:57;;;;;;;5.78;2.70;;;;;;;;;;4982391;28;20030;-82
2022/11/23 14:06:40;;;;;;;3.80;1.73;;;;;;;;;;4988546;28;20102;-80
2022/11/23 14:09:12;;;;;;;5.45;2.08;;;;;;;;;;4969515;28;20022;-78
2022/11/23 14:11:56;;;;;;;7.10;2.85;;;;;;;;;;4972173;28;20049;-81
2022/11/23 14:14:25;;;;;;;17.90;8.13;;;;;;;;;;4985644;28;20038;-80
2022/11/23 14:16:57;;;;;;;10.85;6.20;;;;;;;;;;4992491;28;20027;-82
2022/11/23 14:19:32;;;;;;;10.93;5.30;;;;;;;;;;4964533;28;20035;-86
2022/11/23 14:22:15;;;;;;;7.13;4.10;;;;;;;;;;4986200;28;20085;-86
2022/11/23 14:24:55;;;;;;;15.48;6.93;;;;;;;;;;4989301;28;20057;-80
2022/11/23 14:27:29;;;;;;;17.52;8.43;;;;;;;;;;4979222;28;20022;-82
2022/11/23 14:30:25;;;;;;;9.40;5.53;;;;;;;;;;4982592;28;20026;-82
2022/11/23 14:32:58;;;;;;;11.98;6.00;;;;;;;;;;4975819;28;20376;-84
2022/11/23 14:35:32;;;;;;;5.97;3.93;;;;;;;;;;4972286;28;20568;-81
2022/11/23 14:38:17;;;;;;;8.82;5.00;;;;;;;;;;4968241;28;20398;-82
2022/11/23 14:41:01;;;;;;;9.45;5.13;;;;;;;;;;4993672;28;20037;-83
2022/11/23 14:43:28;;;;;;;11.48;8.43;;;;;;;;;;5009925;28;20022;-83
2022/11/23 14:46:01;;;;;;;14.25;7.38;;;;;;;;;;4998123;28;20138;-83
2022/11/23 14:48:28;;;;;;;16.60;10.50;;;;;;;;;;4991375;28;20099;-84
2022/11/23 14:50:59;;;;;;;25.17;19.88;;;;;;;;;;4969944;28;20375;-82
2022/11/23 14:53:29;;;;;;;24.55;19.33;;;;;;;;;;4980794;28;20043;-82
2022/11/23 14:55:57;;;;;;;59.60;44.08;;;;;;;;;;4990253;28;20433;-81
2022/11/23 14:58:24;;;;;;;67.93;51.00;;;;;;;;;;4984381;28;20018;-80
2022/11/23 15:00:52;;;;;;;43.97;33.90;;;;;;;;;;4985052;28;20030;-84
2022/11/23 15:03:19;;;;;;;25.75;18.52;;;;;;;;;;4991693;28;20446;-84
2022/11/23 15:06:27;;;;;;;14.50;9.57;;;;;;;;;;4991685;28;20438;-82
2022/11/23 15:09:03;;;;;;;61.30;49.80;;;;;;;;;;4904614;29;20024;-82
2022/11/23 15:11:31;;;;;;;15.13;11.35;;;;;;;;;;4903684;29;20033;-81
2022/11/23 15:14:03;;;;;;;12.52;7.32;;;;;;;;;;4953582;28;20030;-81
2022/11/23 15:16:38;;;;;;;14.98;11.90;;;;;;;;;;4975969;28;20050;-83
2022/11/23 15:19:41;;;;;;;9.93;8.20;;;;;;;;;;4975265;28;20022;-85
2022/11/23 15:22:16;;;;;;;10.30;7.60;;;;;;;;;;4983925;28;20019;-84
2022/11/23 15:24:43;;;;;;;9.82;6.78;;;;;;;;;;4986588;28;20031;-82
2022/11/23 15:27:15;;;;;;;11.63;5.78;;;;;;;;;;4978121;28;20490;-83
2022/11/23 15:29:50;;;;;;;10.10;4.72;;;;;;;;;;4990128;28;20086;-83
2022/11/23 15:32:21;;;;;;;21.52;16.73;;;;;;;;;;4971962;28;20030;-83
2022/11/23 15:34:47;;;;;;;40.30;29.33;;;;;;;;;;4990962;28;20500;-80
2022/11/23 15:37:13;;;;;;;34.60;26.23;;;;;;;;;;4993007;28;20363;-80
2022/11/23 15:39:39;;;;;;;29.35;22.58;;;;;;;;;;4994747;28;20026;-79
2022/11/23 15:42:06;;;;;;;18.88;14.98;;;;;;;;;;4988681;28;20033;-80
2022/11/23 15:44:32;;;;;;;20.15;14.63;;;;;;;;;;4995114;28;20030;-81
2022/11/23 15:47:05;;;;;;;50.25;34.90;;;;;;;;;;4977112;28;20038;-82
2022/11/23 15:49:36;;;;;;;101.20;71.30;;;;;;;;;;4977656;28;20046;-81
2022/11/23 15:52:02;;;;;;;85.40;61.13;;;;;;;;;;4994645;28;20030;-81
2022/11/23 15:54:31;;;;;;;73.63;55.78;;;;;;;;;;4995381;28;20034;-80
2022/11/23 15:56:57;;;;;;;76.22;52.20;;;;;;;;;;4993896;28;20105;-82
2022/11/23 15:59:43;;;;;;;57.65;40.95;;;;;;;;;;4995217;28;20030;-81
2022/11/23 16:02:17;;;;;;;70.03;49.60;;;;;;;;;;4992148;28;20112;-81
2022/11/23 16:04:44;;;;;;;44.25;31.38;;;;;;;;;;4981195;28;20073;-82
2022/11/23 16:07:21;;;;;;;31.20;23.10;;;;;;;;;;4965075;28;20042;-81